Terminal Aerodrome Forecast
Issued by NWS Charleston, WV

Current Version | Previous Version | Graphics & Text | Print | Product List | Glossary On
Versions: 1 2 3 4 5 6 7 8 9 10 11 12 13 14 15 16 17 18 19 20 21 22 23 24 25 26 27 28 29 30 31 32 33
954
FTUS41 KRLX 300819 AAA
TAFEKN
TAF AMD
KEKN 300819Z 3008/3106 00000KT 4SM BR BKN080
      TEMPO 3009/3013 1SM BR BKN006
     FM301300 00000KT 4SM BR BKN008
     FM301500 VRB03KT P6SM BKN025
     FM301600 00000KT P6SM BKN035
     FM302100 VRB03KT P6SM SHRA VCTS OVC050CB
     FM302300 00000KT P6SM BKN050=

USA.gov is the U.S. government's official web portal to all federal, state and local government web resources and services.